BFIBOEING FLD/KING COUNTY INTL
METARs for airports near BFI, sorted by distance:
N 0 nm 21' KBFI 300153Z 15003KT 10SM BKN045 OVC055 13/10 A3023
SE 4 nm 32' KRNT 300153Z 00000KT 10SM OVC060 13/09 A3023
S 4 nm 432' KSEA 300153Z 00000KT 10SM OVC045 13/09 A3024
W 18 nm 444' KPWT 300235Z 22006KT 10SM BKN030 12/11 A3023
SW 19 nm 294' KTIW 300153Z 00000KT 10SM SCT040 BKN050 11/10 A3023
N 22 nm 606' KPAE 300153Z 17012KT 10SM CLR 12/09 A3022
S 24 nm 322' KTCM 300158Z 00000KT 10SM BKN047 11/10 A3023
S 25 nm 537' KPLU 300235Z 00000KT 10SM BKN049 13/11 A3023
S 29 nm 301' KGRF 300158Z 14003KT 10SM FEW045 12/09 A3021
N 38 nm 141' KAWO 300156Z 15006KT 10SM SCT025 SCT039 OVC048 13/10 A3022
SW 38 nm 272' KSHN 300153Z 00000KT 4SM -RA BR BKN025 OVC030 12/12 A3020
SW 41 nm 207' KOLM 300154Z 26003KT 10SM FEW037 12/11 A3022
N 51 nm 47' KNUW 300156Z 14008KT 10SM BKN022 BKN050 OVC180 13/10 A3023
N 56 nm 145' KBVS 300235Z 00000KT 8SM OVC027 14/10 A3020
NW 57 nm 13' KNOW 300235Z 00000KT 10SM BKN002 OVC070 08/08 A3018
SW 58 nm 177' KCLS 300235Z 20003KT 10SM OVC048 13/12 A3024
NW 59 nm 291' KCLM 300244Z 00000KT 1 1/2SM BR SCT013 OVC070 07/07 A3018
NW 66 nm 112' KFHR 300153Z 00000KT 10SM SCT021 10/09 A3020
SW 74 nm 17' KHQM 300228Z 27004KT 5SM -RA BR SCT003 BKN022 OVC033 12/11 A3023
N 74 nm 34' KORS 300235Z 17008KT 10SM CLR 12/11 A3015
N 76 nm 171' KBLI 300153Z 18009KT 10SM BKN070 13/10 A3018
E 78 nm 1763' KELN 300153Z 30007KT 10SM CLR 08/03 A3022
NW 80 nm 64' CYYJ 300240Z 15006KT 12SM FEW010 SCT028 BKN070 BKN180 11/11 A3016
E 85 nm 1248' KEAT 300155Z 24004KT 10SM CLR 09/04 A3019
S 88 nm 20' KKLS 300231Z 16007KT 10SM FEW008 BKN014 OVC055 13/12 A3025
SE 92 nm 1098' KYKM 300153Z 33003KT 10SM CLR 07/04 A3022
W 94 nm 193' KUIL 300223Z 20006KT 2 1/2SM BR OVC004 11/11 A3019
TAFs for airports near BFI, sorted by distance:
N 0 nm 21' KBFI TAF KBFI 292325Z 3000/3024 20006G18KT P6SM SCT025 BKN060
  FM300600 19007KT P6SM OVC050
  FM300900 19008KT P6SM OVC025
  FM301200 18012KT P6SM VCSH OVC020
S 4 nm 432' KSEA TAF KSEA 292325Z 3000/0106 22011KT P6SM FEW016 BKN060 BKN250
  FM300600 19007KT P6SM OVC050
  FM300900 19008KT P6SM OVC020
  FM301200 18012KT P6SM VCSH OVC017
  FM302100 18012G20KT P6SM VCSH OVC015
W 18 nm 444' KPWT TAF KPWT 292325Z 3000/3024 20009KT P6SM FEW012 BKN060
  FM300600 19007KT P6SM OVC050
  FM300900 19008KT P6SM OVC025
  FM301200 18012KT P6SM VCSH OVC020
  FM302100 19012G20KT 4SM -RA BR OVC015
N 22 nm 606' KPAE TAF KPAE 292325Z 3000/3024 16009KT P6SM OVC021
  FM300900 17006KT P6SM OVC015
  FM301200 18009KT P6SM -RA OVC012
  FM302100 17012G22KT 4SM -RA BR OVC010
S 24 nm 322' KTCM TAF KTCM 292100Z 2921/0103 22007KT 9999 SCT020 BKN050 620809 QNH3023INS
  BECMG 3005/3006 VRB06KT 9999 SCT012 BKN020 620809 QNH3018INS
  BECMG 3013/3014 21009KT 8000 -SHRA BKN012 OVC020 610809 QNH3017INS TX15/2921Z TN10/3007Z
S 29 nm 301' KGRF TAF KGRF 292105Z 2921/0103 18005KT 9999 SCT015 BKN025 QNH3021INS
  BECMG 3004/3005 19006KT 9999 BKN025 QNH3017INS
  BECMG 3008/3009 21005KT 9999 OVC010 620802 QNH3016INS
  BECMG 3014/3015 18010G18KT 8000 -SHRA BKN010 OVC020 611006 QNH3017INS
  BECMG 3022/3023 19010G17KT 9000 -SHRA BKN015 611006 QNH3016INS TX15/2921Z TN10/3005Z
SW 41 nm 207' KOLM TAF KOLM 292325Z 3000/3024 18006KT P6SM FEW028 BKN040
  FM300600 20003KT P6SM OVC025
  FM301200 21003KT P6SM VCSH OVC015
  FM301800 22004KT 4SM -RA OVC012
N 51 nm 47' KNUW TAF KNUW 2923/3023 15008KT 9999 VCSH SCT015 SCT035 BKN075 BKN180 OVC250 QNH3021INS
  TEMPO 3003/3009 12009KT 9999 SCT005 BKN015 OVC070
  FM300700 VRB06KT 9000 BR BCFG SCT005 BKN050 OVC120 QNH3013INS
  TEMPO 3007/3013 17007KT 3200 -DZ BR BKN004 OVC010
  FM301300 16012KT 6000 -RA BR SCT004 BKN015 OVC050 640809 540109 QNH3012INS
  FM301700 15020G32KT 8000 -RA BR FEW010 SCT033 OVC045 640906 540009 QNH3009INS
  TEMPO 3017/3023 15015G25KT 3200 RA BR SCT010 BKN015 OVC032 T14/2922Z T09/3013Z FS30046
NW 59 nm 291' KCLM TAF
  AMD KCLM 300056Z 3001/3024 25005KT P6SM BKN070
  TEMPO 3001/3005 2SM BR FEW001
  FM300900 24003KT P6SM VCSH OVC050
  FM301400 25006KT P6SM -RA OVC018
  FM301800 28004KT 4SM -RA BR OVC015
SW 74 nm 17' KHQM TAF
  AMD KHQM 300019Z 3000/3024 23005KT 2SM BR OVC005
  FM300900 20004KT P6SM OVC008
  FM301200 16009KT P6SM VCSH OVC015
  FM301500 18012G18KT 4SM -RA BR OVC008
N 76 nm 171' KBLI TAF KBLI 292325Z 3000/3024 16005KT P6SM BKN080
  FM300900 18006KT P6SM VCSH OVC050
  FM301200 18004KT P6SM -RA OVC025
  FM302100 18008G15KT 5SM -RA BR OVC015
E 85 nm 1248' KEAT KEAT 292330Z 3000/3024 VRB04KT P6SM SKC
  FM300200 34003KT P6SM BKN200
  FM301300 28007KT P6SM BKN100
  FM301500 28006KT P6SM OVC050
  FM302200 VRB04KT P6SM OVC025
SE 92 nm 1098' KYKM TAF KYKM 292332Z 3000/3024 VRB05KT P6SM SKC
  FM301300 27006KT P6SM BKN120
  FM302000 25007KT P6SM BKN090

Shortcut to this page: http://wxbay.com.

Data may contain errors.